Time;durP1;ratioP1;P1;durP2;ratioP2;P2;SDS_P1;SDS_P2;PMS_P1;PMS_P2;Temp;Humidity;BMP_temperature;BMP_pressure;BME280_temperature;BME280_humidity;BME280_pressure;Samples;Min_cycle;Max_cycle;Signal;HPM_P1;HPM_P2
2021/09/07 00:00:26;;;;;;;17.23;3.97;;;;;;;16.39;100.00;100557.09;5013171;28;20053;-77
2021/09/07 00:03:29;;;;;;;7.05;3.10;;;;;;;16.35;100.00;100559.34;5013505;28;20108;-77
2021/09/07 00:06:32;;;;;;;4.70;2.10;;;;;;;16.17;100.00;100559.69;5013227;28;20567;-76
2021/09/07 00:09:35;;;;;;;7.40;2.50;;;;;;;16.10;100.00;100564.97;5013454;28;20088;-75
2021/09/07 00:12:38;;;;;;;9.50;3.45;;;;;;;16.23;100.00;100563.34;5013376;28;20524;-76
2021/09/07 00:15:41;;;;;;;10.15;3.30;;;;;;;16.31;100.00;100558.78;5013120;28;20041;-77
2021/09/07 00:18:44;;;;;;;9.38;3.90;;;;;;;16.27;100.00;100554.66;5013649;28;20072;-76
2021/09/07 00:21:47;;;;;;;10.80;2.22;;;;;;;16.41;100.00;100546.13;5016637;28;20084;-76
2021/09/07 00:24:50;;;;;;;8.50;2.05;;;;;;;16.68;100.00;100537.13;5019714;28;20519;-77
2021/09/07 00:27:54;;;;;;;12.35;3.95;;;;;;;16.75;100.00;100529.50;5036438;28;20630;-77
2021/09/07 00:30:57;;;;;;;4.82;2.53;;;;;;;16.72;100.00;100533.31;5039820;28;20511;-76
2021/09/07 00:34:00;;;;;;;12.77;3.78;;;;;;;16.65;100.00;100537.38;5037398;28;20530;-77
2021/09/07 00:37:03;;;;;;;8.10;3.17;;;;;;;16.54;100.00;100532.44;5036897;28;20164;-77
2021/09/07 00:40:13;;;;;;;5.60;2.53;;;;;;;16.58;100.00;100532.97;5032739;28;20088;-76
2021/09/07 00:48:36;;;;;;;6.72;2.08;;;;;;;16.28;100.00;100528.88;5003558;22;20422;-78
2021/09/07 00:51:41;;;;;;;7.50;2.85;;;;;;;16.39;100.00;100531.78;5023190;28;20119;-76
2021/09/07 00:54:47;;;;;;;5.90;1.88;;;;;;;16.41;100.00;100528.47;5011455;28;20072;-76
2021/09/07 00:57:51;;;;;;;10.55;3.38;;;;;;;16.37;100.00;100522.31;5018483;28;20065;-77
2021/09/07 01:00:54;;;;;;;7.95;2.63;;;;;;;16.30;100.00;100523.53;5015680;28;20116;-82
2021/09/07 01:03:58;;;;;;;10.32;3.00;;;;;;;16.33;100.00;100519.72;5012166;28;20053;-81
2021/09/07 01:07:03;;;;;;;7.10;3.22;;;;;;;16.03;100.00;100526.84;5024517;28;20514;-76
2021/09/07 01:10:07;;;;;;;5.78;2.25;;;;;;;16.12;100.00;100523.88;5031308;28;20124;-76
2021/09/07 01:13:11;;;;;;;7.22;2.80;;;;;;;16.20;100.00;100529.84;5012486;28;20048;-78
2021/09/07 01:16:20;;;;;;;10.48;2.67;;;;;;;16.19;100.00;100523.44;5011174;28;20057;-78
2021/09/07 01:19:26;;;;;;;11.60;3.25;;;;;;;16.21;100.00;100523.72;5009425;28;20049;-78
2021/09/07 01:22:29;;;;;;;6.22;2.72;;;;;;;16.24;100.00;100508.66;5008809;28;20114;-78
2021/09/07 01:25:32;;;;;;;11.68;3.83;;;;;;;14.89;100.00;100509.72;5009397;28;20053;-78
2021/09/07 01:28:36;;;;;;;7.82;2.20;;;;;;;15.97;100.00;100511.22;5011338;28;20516;-80
2021/09/07 01:31:39;;;;;;;5.57;2.88;;;;;;;16.07;100.00;100510.53;5011488;28;20185;-77
2021/09/07 01:34:42;;;;;;;6.05;2.83;;;;;;;15.03;100.00;100513.69;5011798;28;20116;-76
2021/09/07 01:37:45;;;;;;;9.30;3.03;;;;;;;14.53;100.00;100513.00;5012620;28;20129;-76
2021/09/07 01:40:48;;;;;;;21.55;4.68;;;;;;;14.44;100.00;100519.50;5013601;28;20137;-77
2021/09/07 01:43:51;;;;;;;10.88;3.88;;;;;;;14.35;100.00;100522.44;5012501;28;20131;-76
2021/09/07 01:46:54;;;;;;;7.68;2.83;;;;;;;14.29;100.00;100523.59;5014982;28;20064;-76
2021/09/07 01:49:57;;;;;;;13.98;3.70;;;;;;;14.19;100.00;100525.69;5024017;28;20689;-76
2021/09/07 01:53:00;;;;;;;6.97;2.55;;;;;;;14.13;100.00;100521.25;5030494;28;20040;-76
2021/09/07 01:56:03;;;;;;;6.15;3.33;;;;;;;14.19;100.00;100520.09;5031779;28;20051;-76
2021/09/07 01:59:07;;;;;;;8.38;2.50;;;;;;;14.29;100.00;100518.75;5029905;28;20128;-76
2021/09/07 02:02:10;;;;;;;4.38;2.20;;;;;;;14.30;100.00;100520.31;5016070;28;20052;-76
2021/09/07 02:05:13;;;;;;;11.23;3.03;;;;;;;14.38;100.00;100520.66;5015544;28;20049;-76
2021/09/07 02:08:15;;;;;;;6.15;2.67;;;;;;;14.33;100.00;100518.56;5016285;28;20100;-76
2021/09/07 02:11:18;;;;;;;10.25;4.28;;;;;;;14.36;100.00;100523.19;5015925;28;20095;-76
2021/09/07 02:14:22;;;;;;;8.30;3.00;;;;;;;14.25;100.00;100514.59;5015149;28;20513;-76
2021/09/07 02:17:25;;;;;;;12.55;2.75;;;;;;;14.16;100.00;100525.91;5015219;28;20048;-76
2021/09/07 02:20:27;;;;;;;14.77;2.67;;;;;;;14.16;100.00;100520.28;5015348;28;20052;-76
2021/09/07 02:23:30;;;;;;;17.42;3.70;;;;;;;14.19;100.00;100516.50;5014575;28;20053;-76
2021/09/07 02:26:33;;;;;;;7.57;3.03;;;;;;;14.16;100.00;100511.88;5015408;28;20041;-76
2021/09/07 02:29:36;;;;;;;11.32;4.57;;;;;;;14.14;100.00;100512.34;5015632;28;20505;-76
2021/09/07 02:32:38;;;;;;;8.00;1.85;;;;;;;14.11;100.00;100509.75;5015138;28;20510;-75
2021/09/07 02:35:41;;;;;;;12.50;4.07;;;;;;;14.04;100.00;100507.34;5014985;28;20088;-76
2021/09/07 02:38:44;;;;;;;7.15;2.25;;;;;;;14.02;100.00;100515.44;5015875;28;20130;-76
2021/09/07 02:41:47;;;;;;;16.60;4.00;;;;;;;13.97;100.00;100507.75;5015408;28;20450;-76
2021/09/07 02:44:50;;;;;;;4.85;2.75;;;;;;;13.94;100.00;100514.31;5014704;28;20049;-76
2021/09/07 02:47:53;;;;;;;10.18;3.20;;;;;;;13.94;100.00;100508.69;5015166;28;20096;-76
2021/09/07 02:50:56;;;;;;;4.28;3.10;;;;;;;14.53;100.00;100510.19;5015126;28;20045;-76
2021/09/07 02:53:59;;;;;;;10.93;2.90;;;;;;;14.56;100.00;100508.44;5015212;28;20049;-75
2021/09/07 02:57:02;;;;;;;9.25;2.97;;;;;;;14.68;100.00;100494.13;5015344;28;20108;-75
2021/09/07 03:00:06;;;;;;;14.63;3.30;;;;;;;14.37;100.00;100507.94;5015173;28;20049;-75
2021/09/07 03:03:09;;;;;;;5.95;3.65;;;;;;;15.27;100.00;100497.44;5015324;28;20053;-76
2021/09/07 03:06:12;;;;;;;16.58;3.25;;;;;;;15.33;100.00;100494.72;5014754;28;20156;-75
2021/09/07 03:09:15;;;;;;;9.15;2.88;;;;;;;15.43;100.00;100496.09;5015483;28;20060;-75
2021/09/07 03:12:18;;;;;;;8.18;3.17;;;;;;;15.46;100.00;100495.13;5014059;28;20107;-75
2021/09/07 03:15:25;;;;;;;8.68;2.97;;;;;;;15.39;100.00;100485.09;5014232;28;20554;-75
2021/09/07 03:18:28;;;;;;;11.40;3.47;;;;;;;15.38;100.00;100491.16;5013929;28;20092;-75
2021/09/07 03:21:30;;;;;;;10.65;1.75;;;;;;;15.32;100.00;100491.13;5014283;28;20044;-76
2021/09/07 03:24:33;;;;;;;8.18;3.35;;;;;;;15.21;100.00;100491.00;5014350;28;20525;-75
2021/09/07 03:27:36;;;;;;;8.30;2.22;;;;;;;15.50;100.00;100485.25;5014192;28;20088;-75
2021/09/07 03:30:39;;;;;;;11.80;4.00;;;;;;;15.57;100.00;100481.22;5014188;28;20096;-75
2021/09/07 03:33:42;;;;;;;29.10;5.03;;;;;;;15.62;100.00;100480.50;5014094;28;20105;-75
2021/09/07 03:36:45;;;;;;;11.55;3.17;;;;;;;15.54;100.00;100485.00;5014214;28;20052;-75
2021/09/07 03:39:48;;;;;;;4.43;2.40;;;;;;;15.48;100.00;100475.75;5014526;28;20096;-75
2021/09/07 03:42:51;;;;;;;10.73;2.65;;;;;;;15.51;100.00;100480.38;5014363;28;20403;-76
2021/09/07 03:45:54;;;;;;;5.95;2.38;;;;;;;15.36;100.00;100474.84;5013878;28;20145;-75
2021/09/07 03:48:57;;;;;;;6.10;2.83;;;;;;;15.39;100.00;100470.28;5013971;28;20407;-76
2021/09/07 03:52:00;;;;;;;9.57;2.55;;;;;;;15.26;100.00;100472.69;5013909;28;20095;-75
2021/09/07 03:55:03;;;;;;;2.35;1.67;;;;;;;15.16;100.00;100475.63;5014119;28;20108;-76
2021/09/07 03:58:06;;;;;;;9.27;2.35;;;;;;;15.15;100.00;100476.91;5014232;28;20127;-75
2021/09/07 04:01:09;;;;;;;24.45;4.40;;;;;;;15.12;100.00;100472.25;5024775;28;20457;-75
2021/09/07 04:04:12;;;;;;;4.22;2.95;;;;;;;15.14;100.00;100468.97;5033777;28;20048;-76
2021/09/07 04:07:15;;;;;;;5.35;2.60;;;;;;;15.13;100.00;100471.00;5033350;28;20052;-76
2021/09/07 04:10:18;;;;;;;6.05;2.92;;;;;;;15.10;100.00;100468.41;5033827;28;20044;-76
2021/09/07 04:13:21;;;;;;;4.40;1.80;;;;;;;15.13;100.00;100465.41;5032862;28;20100;-76
2021/09/07 04:16:24;;;;;;;13.00;2.97;;;;;;;15.13;100.00;100462.59;5032791;28;20139;-75
2021/09/07 04:19:27;;;;;;;6.03;2.28;;;;;;;15.06;100.00;100468.63;5033084;28;20710;-76
2021/09/07 04:22:29;;;;;;;5.55;1.63;;;;;;;15.02;100.00;100461.69;5031445;28;20068;-76
2021/09/07 04:25:32;;;;;;;6.25;2.08;;;;;;;14.98;100.00;100456.28;5033344;28;20589;-76
2021/09/07 04:28:35;;;;;;;11.45;2.08;;;;;;;14.97;100.00;100454.75;5033618;28;20056;-75
2021/09/07 04:31:40;;;;;;;5.25;2.97;;;;;;;14.89;100.00;100455.66;5032653;28;20052;-76
2021/09/07 04:34:42;;;;;;;7.53;2.63;;;;;;;14.88;100.00;100460.47;5032027;28;20076;-75
2021/09/07 04:37:45;;;;;;;6.25;2.72;;;;;;;14.91;100.00;100459.50;5032387;28;20091;-75
2021/09/07 04:40:48;;;;;;;14.10;2.53;;;;;;;14.90;100.00;100449.53;5033032;28;20067;-76
2021/09/07 04:43:51;;;;;;;4.70;2.03;;;;;;;14.82;100.00;100451.22;5032998;28;20505;-76
2021/09/07 04:46:54;;;;;;;8.15;2.08;;;;;;;14.61;100.00;100460.13;5033587;28;20076;-75
2021/09/07 04:49:56;;;;;;;8.65;1.70;;;;;;;14.52;100.00;100469.44;5031799;28;20056;-75
2021/09/07 04:52:59;;;;;;;7.50;2.90;;;;;;;14.43;100.00;100455.53;5032775;28;20111;-75
2021/09/07 04:56:02;;;;;;;8.75;2.40;;;;;;;14.43;100.00;100469.53;5032619;28;20048;-76
2021/09/07 04:59:05;;;;;;;6.45;2.70;;;;;;;14.42;100.00;100468.75;5032874;28;20176;-75
2021/09/07 05:02:08;;;;;;;8.13;2.78;;;;;;;14.44;100.00;100463.44;5014207;28;20064;-76
2021/09/07 05:05:11;;;;;;;7.60;2.60;;;;;;;14.52;100.00;100458.22;5013259;28;20052;-75
2021/09/07 05:08:14;;;;;;;8.57;3.15;;;;;;;14.54;100.00;100466.13;5012753;28;20104;-75
2021/09/07 05:11:17;;;;;;;7.78;2.15;;;;;;;14.58;100.00;100467.47;5012666;28;20053;-75
2021/09/07 05:14:20;;;;;;;7.75;3.10;;;;;;;14.49;100.00;100466.84;5012059;28;20057;-75
2021/09/07 05:17:22;;;;;;;5.50;2.53;;;;;;;14.54;100.00;100466.91;5012180;28;20049;-80
2021/09/07 05:20:25;;;;;;;5.18;2.47;;;;;;;14.59;100.00;100465.44;5012767;28;20096;-80
2021/09/07 05:23:28;;;;;;;9.05;2.80;;;;;;;14.64;100.00;100467.56;5012092;28;20430;-80
2021/09/07 05:26:31;;;;;;;9.05;2.78;;;;;;;14.52;100.00;100458.22;5011993;28;20091;-80
2021/09/07 05:29:34;;;;;;;5.47;2.15;;;;;;;14.52;100.00;100461.03;5012106;28;20153;-80
2021/09/07 05:32:38;;;;;;;9.77;2.05;;;;;;;14.44;100.00;100451.47;5012093;28;20415;-80
2021/09/07 05:35:41;;;;;;;3.85;2.35;;;;;;;14.38;100.00;100459.00;5011775;28;20554;-80
2021/09/07 05:38:44;;;;;;;6.38;2.38;;;;;;;14.32;100.00;100463.78;5012187;28;20048;-80
2021/09/07 05:41:48;;;;;;;7.25;2.08;;;;;;;14.29;100.00;100473.91;5012039;28;20467;-80
2021/09/07 05:44:51;;;;;;;3.60;2.05;;;;;;;14.33;100.00;100479.34;5012235;28;20084;-80
2021/09/07 05:47:54;;;;;;;5.20;2.42;;;;;;;14.36;100.00;100481.16;5012564;28;20053;-80
2021/09/07 05:50:56;;;;;;;6.95;3.17;;;;;;;14.42;100.00;100485.56;5012205;28;20126;-80
2021/09/07 05:53:59;;;;;;;7.75;2.38;;;;;;;14.56;100.00;100483.22;5012493;28;20053;-80
2021/09/07 05:57:02;;;;;;;4.07;2.15;;;;;;;14.55;100.00;100488.09;5012775;28;20157;-80
2021/09/07 06:00:07;;;;;;;8.07;2.72;;;;;;;14.62;100.00;100495.31;5014322;28;20049;-80
2021/09/07 06:03:10;;;;;;;5.25;2.53;;;;;;;14.59;100.00;100491.44;5032274;28;20104;-80
2021/09/07 06:06:14;;;;;;;11.70;2.83;;;;;;;14.53;100.00;100487.78;5032332;28;20191;-80
2021/09/07 06:09:16;;;;;;;17.00;2.35;;;;;;;14.58;100.00;100495.50;5032426;28;20106;-80
2021/09/07 06:12:19;;;;;;;4.28;2.15;;;;;;;14.68;100.00;100494.13;5032797;28;20076;-81
2021/09/07 06:15:22;;;;;;;6.38;1.63;;;;;;;14.69;100.00;100492.84;5031954;28;20076;-81
2021/09/07 06:18:25;;;;;;;10.65;2.80;;;;;;;14.76;100.00;100495.25;5031867;28;20553;-81
2021/09/07 06:21:28;;;;;;;8.57;2.85;;;;;;;14.80;100.00;100489.44;5032120;28;20100;-86
2021/09/07 06:24:31;;;;;;;9.63;3.03;;;;;;;14.82;100.00;100487.69;5032214;28;20120;-87
2021/09/07 06:27:34;;;;;;;6.75;1.92;;;;;;;14.85;100.00;100483.91;5044334;28;20508;-86
2021/09/07 06:30:38;;;;;;;7.18;2.38;;;;;;;15.00;100.00;100481.81;5036022;28;20080;-87
2021/09/07 06:33:41;;;;;;;10.65;2.83;;;;;;;15.08;100.00;100482.94;5036946;28;20171;-86
2021/09/07 06:36:45;;;;;;;7.30;2.72;;;;;;;15.07;100.00;100480.63;5031626;28;20099;-85
2021/09/07 06:39:48;;;;;;;7.68;2.58;;;;;;;15.14;100.00;100480.97;5032515;28;20052;-86
2021/09/07 06:42:51;;;;;;;5.97;2.63;;;;;;;15.20;100.00;100484.59;5031935;28;20092;-86
2021/09/07 06:45:54;;;;;;;2.92;1.83;;;;;;;15.24;100.00;100484.41;5031840;28;20129;-87
2021/09/07 06:48:56;;;;;;;3.33;2.17;;;;;;;15.43;100.00;100482.06;5035163;28;20052;-87
2021/09/07 06:52:00;;;;;;;8.07;3.45;;;;;;;15.54;100.00;100485.00;5035220;28;20520;-85
2021/09/07 06:55:04;;;;;;;13.73;4.15;;;;;;;15.65;100.00;100485.13;5035090;28;20083;-87
2021/09/07 06:58:06;;;;;;;15.48;4.68;;;;;;;15.67;100.00;100479.78;5035006;28;20047;-87
2021/09/07 07:01:09;;;;;;;25.15;5.10;;;;;;;15.76;100.00;100486.03;5024568;28;20067;-86
2021/09/07 07:04:12;;;;;;;9.85;3.90;;;;;;;15.82;100.00;100483.25;5016432;28;20068;-87
2021/09/07 07:07:15;;;;;;;9.65;3.45;;;;;;;15.88;100.00;100484.06;5015331;28;20080;-85
2021/09/07 07:10:18;;;;;;;9.82;3.60;;;;;;;15.96;100.00;100485.16;5015128;28;20068;-86
2021/09/07 07:13:21;;;;;;;4.65;3.13;;;;;;;15.88;100.00;100478.44;5014793;28;20104;-86
2021/09/07 07:16:24;;;;;;;13.05;4.32;;;;;;;15.82;100.00;100475.59;5014086;28;20041;-86
2021/09/07 07:19:26;;;;;;;12.90;3.65;;;;;;;16.10;100.00;100475.06;5014733;28;20048;-86
2021/09/07 07:22:29;;;;;;;21.35;4.45;;;;;;;16.18;100.00;100476.91;5013930;28;20081;-86
2021/09/07 07:25:32;;;;;;;5.82;3.13;;;;;;;16.54;100.00;100472.63;5012556;28;20048;-86
2021/09/07 07:28:35;;;;;;;8.68;3.67;;;;;;;16.64;100.00;100477.53;5030367;28;20041;-87
2021/09/07 07:31:42;;;;;;;13.25;5.13;;;;;;;16.68;100.00;100475.25;5029897;28;20177;-87
2021/09/07 07:34:45;;;;;;;15.75;5.03;;;;;;;16.80;100.00;100475.31;5014569;28;20145;-86
2021/09/07 07:37:48;;;;;;;16.58;5.68;;;;;;;16.93;100.00;100478.47;5014294;28;20049;-85
2021/09/07 07:40:51;;;;;;;11.98;4.28;;;;;;;17.04;100.00;100481.31;5015139;28;20049;-86
2021/09/07 07:43:54;;;;;;;17.80;5.68;;;;;;;17.23;100.00;100493.69;5013616;28;20141;-85
2021/09/07 07:46:58;;;;;;;16.95;5.18;;;;;;;17.42;100.00;100489.13;5013042;28;20099;-85
2021/09/07 07:50:06;;;;;;;14.90;5.03;;;;;;;17.50;100.00;100481.75;5014156;28;20104;-85
2021/09/07 07:53:09;;;;;;;20.60;5.57;;;;;;;17.58;100.00;100480.00;5014426;28;20056;-86
2021/09/07 07:56:15;;;;;;;18.00;6.35;;;;;;;17.69;100.00;100482.84;5014248;28;20458;-85
2021/09/07 07:59:18;;;;;;;20.30;5.55;;;;;;;17.81;100.00;100484.38;5013679;28;20526;-85
2021/09/07 08:02:21;;;;;;;28.38;7.88;;;;;;;18.04;100.00;100479.56;5013753;28;20131;-85
2021/09/07 08:05:24;;;;;;;30.63;8.15;;;;;;;18.17;100.00;100483.38;5013002;28;20049;-86
2021/09/07 08:08:27;;;;;;;21.23;5.75;;;;;;;18.28;100.00;100484.69;5013393;28;20096;-85
2021/09/07 08:11:29;;;;;;;31.83;8.45;;;;;;;18.35;100.00;100484.13;5013385;28;20053;-84
2021/09/07 08:14:33;;;;;;;35.65;7.15;;;;;;;18.63;100.00;100487.72;5013490;28;20041;-85
2021/09/07 08:17:35;;;;;;;19.48;7.22;;;;;;;18.86;100.00;100483.56;5013520;28;20053;-86
2021/09/07 08:20:38;;;;;;;19.65;6.65;;;;;;;19.04;100.00;100494.28;5014157;28;20136;-85
2021/09/07 08:23:42;;;;;;;23.15;7.03;;;;;;;19.24;100.00;100482.66;5028624;28;20055;-84
2021/09/07 08:26:45;;;;;;;17.30;6.32;;;;;;;19.39;100.00;100488.78;5032339;28;20060;-84
2021/09/07 08:29:48;;;;;;;28.42;6.68;;;;;;;19.65;100.00;100494.00;5032116;28;20480;-84
2021/09/07 08:32:52;;;;;;;20.13;5.90;;;;;;;19.90;100.00;100497.72;5033185;28;20414;-84
2021/09/07 08:35:55;;;;;;;29.80;7.47;;;;;;;20.12;100.00;100491.91;5034096;28;20099;-83
2021/09/07 08:38:59;;;;;;;38.70;9.40;;;;;;;20.34;100.00;100491.72;5033076;28;20506;-84
2021/09/07 08:42:06;;;;;;;28.33;8.95;;;;;;;20.66;100.00;100494.78;5022151;28;20052;-83
2021/09/07 08:45:12;;;;;;;24.95;7.35;;;;;;;20.80;100.00;100488.69;5012545;28;20064;-84
2021/09/07 08:48:15;;;;;;;29.48;6.32;;;;;;;20.93;100.00;100485.97;5013104;28;20120;-85
2021/09/07 08:51:22;;;;;;;33.28;7.95;;;;;;;20.97;100.00;100483.63;5012974;28;20079;-85
2021/09/07 08:54:28;;;;;;;27.80;8.25;;;;;;;21.16;100.00;100480.09;5012013;28;20479;-84
2021/09/07 08:57:43;;;;;;;23.35;7.03;;;;;;;21.41;100.00;100484.38;5011458;28;20052;-84
2021/09/07 09:01:47;;;;;;;19.30;6.47;;;;;;;21.52;100.00;100487.84;5019422;28;20576;-84
2021/09/07 09:04:50;;;;;;;22.38;6.22;;;;;;;21.66;100.00;100488.66;5032526;28;20052;-82
2021/09/07 09:07:54;;;;;;;21.90;7.28;;;;;;;21.81;100.00;100488.94;5032898;28;20215;-81
2021/09/07 09:11:09;;;;;;;12.02;4.88;;;;;;;21.92;100.00;100488.81;5032246;28;20048;-82
2021/09/07 09:14:38;;;;;;;18.10;4.25;;;;;;;22.13;100.00;100489.03;5032552;28;20049;-82
2021/09/07 09:17:42;;;;;;;21.15;7.20;;;;;;;22.26;100.00;100489.06;5032322;28;20049;-82
2021/09/07 09:20:44;;;;;;;11.77;4.65;;;;;;;22.47;100.00;100499.25;5032961;28;20052;-81
2021/09/07 09:24:10;;;;;;;22.67;5.47;;;;;;;22.74;100.00;100493.66;5032876;28;20096;-81
2021/09/07 09:27:14;;;;;;;13.70;4.53;;;;;;;22.82;100.00;100500.22;5032450;28;20466;-82
2021/09/07 09:30:27;;;;;;;12.48;5.43;;;;;;;23.04;100.00;100494.09;5032518;28;20056;-82
2021/09/07 09:33:30;;;;;;;13.63;5.35;;;;;;;23.17;100.00;100485.56;5032095;28;20514;-82
2021/09/07 09:36:33;;;;;;;18.67;3.97;;;;;;;23.44;100.00;100484.22;5032426;28;20073;-81
2021/09/07 09:39:46;;;;;;;17.50;4.25;;;;;;;23.70;100.00;100487.00;5032007;28;20049;-82
2021/09/07 09:42:49;;;;;;;10.15;4.20;;;;;;;23.80;100.00;100479.53;5032840;28;20048;-84
2021/09/07 09:45:54;;;;;;;9.25;4.28;;;;;;;23.96;100.00;100466.22;5032491;28;20109;-83
2021/09/07 09:49:14;;;;;;;14.75;4.70;;;;;;;24.16;100.00;100464.72;5011707;28;20562;-83
2021/09/07 09:52:17;;;;;;;12.48;3.83;;;;;;;24.26;100.00;100466.53;5012684;28;20049;-83
2021/09/07 09:55:22;;;;;;;12.80;3.47;;;;;;;24.44;100.00;100456.25;5012292;28;20052;-83
2021/09/07 09:58:26;;;;;;;9.25;3.53;;;;;;;24.55;100.00;100455.94;5012057;28;20511;-83
2021/09/07 10:01:30;;;;;;;6.70;2.70;;;;;;;24.67;100.00;100462.84;5024567;28;20107;-83
2021/09/07 10:04:33;;;;;;;9.65;4.10;;;;;;;24.78;100.00;100456.88;5030971;28;20406;-83
2021/09/07 10:07:36;;;;;;;8.80;3.20;;;;;;;24.92;100.00;100449.75;5030872;28;20134;-82
2021/09/07 10:10:43;;;;;;;11.18;2.85;;;;;;;25.09;100.00;100441.50;5031767;28;20065;-82
2021/09/07 10:13:49;;;;;;;6.57;3.25;;;;;;;25.14;100.00;100442.66;5031627;28;20130;-82
2021/09/07 10:17:31;;;;;;;11.88;2.63;;;;;;;25.27;100.00;100437.59;5032543;28;20408;-82
2021/09/07 10:20:48;;;;;;;9.63;3.45;;;;;;;25.41;100.00;100438.94;5031049;28;20100;-84
2021/09/07 10:26:59;;;;;;;7.45;3.38;;;;;;;25.61;100.00;100428.78;5035853;28;20044;-83
2021/09/07 10:30:03;;;;;;;8.40;4.03;;;;;;;25.66;100.00;100435.63;5035880;28;20053;-82
2021/09/07 10:33:35;;;;;;;13.35;3.80;;;;;;;25.67;100.00;100420.03;5035653;28;20048;-83
2021/09/07 10:36:57;;;;;;;14.80;4.50;;;;;;;25.97;100.00;100426.53;5035188;28;20126;-84
2021/09/07 10:40:00;;;;;;;8.52;2.60;;;;;;;26.07;100.00;100423.91;5035172;28;20115;-84
2021/09/07 10:43:03;;;;;;;9.90;3.88;;;;;;;26.11;100.00;100424.31;5035728;28;20048;-83
2021/09/07 10:46:06;;;;;;;9.07;3.90;;;;;;;26.19;100.00;100417.25;5035640;28;20052;-83
2021/09/07 10:49:21;;;;;;;9.88;3.33;;;;;;;26.43;100.00;100410.19;5034523;28;20518;-83
2021/09/07 10:52:27;;;;;;;8.30;3.10;;;;;;;26.51;100.00;100405.22;5034395;28;20122;-83
2021/09/07 10:55:35;;;;;;;9.88;3.53;;;;;;;26.53;100.00;100401.81;5043749;28;20078;-83
2021/09/07 10:58:38;;;;;;;10.73;3.38;;;;;;;26.65;100.00;100403.69;5050972;28;20064;-83
2021/09/07 11:01:41;;;;;;;12.18;3.03;;;;;;;26.76;100.00;100396.84;5021085;28;20112;-83
2021/09/07 11:04:50;;;;;;;7.00;3.03;;;;;;;26.78;100.00;100394.94;5014816;28;20057;-83
2021/09/07 11:08:03;;;;;;;10.73;3.17;;;;;;;26.85;100.00;100388.44;5022302;28;20153;-85
2021/09/07 11:11:25;;;;;;;8.88;3.90;;;;;;;26.94;100.00;100384.94;5034325;28;20530;-85
2021/09/07 11:14:28;;;;;;;12.05;3.50;;;;;;;27.09;100.00;100384.16;5034453;28;20064;-83
2021/09/07 11:17:32;;;;;;;5.57;3.08;;;;;;;27.21;100.00;100378.72;5034456;28;20045;-84
2021/09/07 11:20:40;;;;;;;9.15;2.75;;;;;;;27.13;100.00;100375.16;5033539;28;20064;-86
2021/09/07 11:23:43;;;;;;;11.88;4.28;;;;;;;27.21;100.00;100362.34;5033417;28;20049;-85
2021/09/07 11:26:46;;;;;;;8.45;3.10;;;;;;;27.37;100.00;100366.69;5033989;28;20047;-84
2021/09/07 11:29:49;;;;;;;10.45;4.05;;;;;;;27.32;100.00;100364.00;5033544;28;20475;-84
2021/09/07 11:32:58;;;;;;;6.90;3.15;;;;;;;27.38;100.00;100364.56;5032921;28;20191;-85
2021/09/07 11:36:06;;;;;;;7.82;3.00;;;;;;;27.42;100.00;100359.94;5032812;28;20136;-85
2021/09/07 11:39:20;;;;;;;12.90;3.08;;;;;;;27.54;100.00;100354.53;5032767;28;20071;-85
2021/09/07 11:42:23;;;;;;;9.73;2.63;;;;;;;27.58;100.00;100335.63;5032307;28;20104;-85
2021/09/07 11:45:29;;;;;;;8.98;2.78;;;;;;;27.65;100.00;100342.66;5033634;28;20561;-84
2021/09/07 11:48:32;;;;;;;9.38;2.45;;;;;;;27.68;100.00;100342.22;5032066;28;20518;-84
2021/09/07 11:51:39;;;;;;;6.18;1.73;;;;;;;27.73;100.00;100349.06;5033218;28;20060;-84
2021/09/07 11:54:43;;;;;;;8.55;2.38;;;;;;;27.78;100.00;100339.50;5037514;28;20072;-83
2021/09/07 11:57:46;;;;;;;11.25;2.33;;;;;;;27.80;100.00;100342.53;5037604;28;20052;-83
2021/09/07 12:00:58;;;;;;;6.18;2.08;;;;;;;27.80;100.00;100342.53;5025394;28;20045;-82
2021/09/07 12:04:01;;;;;;;9.07;2.03;;;;;;;27.90;100.00;100340.53;5013495;28;20056;-83
2021/09/07 12:07:05;;;;;;;9.27;2.35;;;;;;;27.99;100.00;100342.78;5012612;28;20044;-83
2021/09/07 12:10:08;;;;;;;8.55;1.65;;;;;;;28.02;100.00;100344.47;5013158;28;20067;-84
2021/09/07 12:13:21;;;;;;;6.63;1.85;;;;;;;28.05;100.00;100333.94;5012988;28;20052;-82
2021/09/07 12:16:24;;;;;;;8.02;2.15;;;;;;;28.01;100.00;100342.19;5012578;28;20052;-81
2021/09/07 12:19:33;;;;;;;7.60;2.75;;;;;;;28.05;100.00;100340.41;5012586;28;20131;-81
2021/09/07 12:22:40;;;;;;;7.75;1.77;;;;;;;28.08;100.00;100332.75;5012391;28;20104;-81
2021/09/07 12:25:46;;;;;;;5.32;1.92;;;;;;;28.12;100.00;100331.00;5012348;28;20041;-82
2021/09/07 12:29:09;;;;;;;9.75;2.00;;;;;;;28.11;100.00;100329.47;5011317;28;20569;-81
2021/09/07 12:32:12;;;;;;;6.40;1.95;;;;;;;28.16;100.00;100328.47;5012108;28;20431;-81
2021/09/07 12:35:33;;;;;;;5.63;1.52;;;;;;;28.29;100.00;100316.69;5012106;28;20142;-82
2021/09/07 12:38:36;;;;;;;6.88;2.83;;;;;;;28.41;100.00;100309.09;5011505;28;20040;-83
2021/09/07 12:41:40;;;;;;;6.05;1.90;;;;;;;28.33;100.00;100314.16;5011537;28;20053;-82
2021/09/07 12:44:48;;;;;;;8.05;2.85;;;;;;;28.42;100.00;100310.63;5011211;28;20103;-82
2021/09/07 12:47:50;;;;;;;6.10;1.52;;;;;;;28.57;100.00;100303.22;5017041;28;20045;-82
2021/09/07 12:50:54;;;;;;;12.35;2.35;;;;;;;28.60;100.00;100296.34;5071230;28;20064;-82
2021/09/07 12:53:58;;;;;;;3.22;1.88;;;;;;;28.53;100.00;100295.81;5071189;28;20101;-81
2021/09/07 12:57:01;;;;;;;7.68;2.22;;;;;;;28.67;100.00;100295.50;5059192;28;20114;-81
2021/09/07 13:00:04;;;;;;;5.10;1.60;;;;;;;28.70;100.00;100302.88;5069280;28;20473;-84
2021/09/07 13:03:10;;;;;;;5.30;1.50;;;;;;;28.90;100.00;100295.94;5051311;28;20103;-85
2021/09/07 13:06:16;;;;;;;5.18;0.80;;;;;;;28.99;100.00;100293.16;5051584;28;20163;-84
2021/09/07 13:09:19;;;;;;;9.52;2.55;;;;;;;28.93;100.00;100292.66;5038635;28;20471;-84
2021/09/07 13:12:22;;;;;;;5.57;1.73;;;;;;;28.72;100.00;100292.34;5050803;28;20560;-85
2021/09/07 13:15:25;;;;;;;3.28;1.10;;;;;;;28.67;100.00;100286.88;5050576;28;20152;-83
2021/09/07 13:18:29;;;;;;;3.90;1.30;;;;;;;28.61;100.00;100292.13;5050680;28;20051;-85
2021/09/07 13:21:32;;;;;;;4.72;1.15;;;;;;;28.54;100.00;100288.72;5050783;28;20052;-83
2021/09/07 13:24:35;;;;;;;4.13;1.42;;;;;;;28.56;100.00;100285.28;5050626;28;20117;-85
2021/09/07 13:27:38;;;;;;;10.93;1.55;;;;;;;28.50;100.00;100285.50;5039364;28;20173;-86
2021/09/07 13:30:43;;;;;;;3.13;1.10;;;;;;;28.50;100.00;100276.91;5038666;28;20528;-86
2021/09/07 13:33:48;;;;;;;7.68;1.92;;;;;;;28.53;100.00;100272.88;5039119;28;20106;-85
2021/09/07 13:36:50;;;;;;;5.55;2.47;;;;;;;28.54;100.00;100274.38;5050951;28;20125;-84
2021/09/07 13:39:53;;;;;;;5.50;1.60;;;;;;;28.62;100.00;100265.72;5051969;28;20056;-81
2021/09/07 13:42:57;;;;;;;8.82;2.17;;;;;;;28.72;100.00;100262.94;5054373;28;20127;-83
2021/09/07 13:46:00;;;;;;;10.75;1.90;;;;;;;28.96;100.00;100254.19;5053184;28;20044;-76
2021/09/07 13:49:02;;;;;;;5.60;1.60;;;;;;;29.03;100.00;100258.28;5050199;28;20052;-78
2021/09/07 13:52:06;;;;;;;5.07;1.75;;;;;;;28.89;100.00;100260.03;5050602;28;20140;-77
2021/09/07 13:55:09;;;;;;;7.95;2.20;;;;;;;28.96;100.00;100247.66;5051281;28;20094;-77
2021/09/07 13:58:12;;;;;;;14.32;2.60;;;;;;;29.05;100.00;100241.25;5056480;28;20458;-77
2021/09/07 14:01:15;;;;;;;4.22;1.02;;;;;;;29.03;100.00;100235.34;5066473;28;20086;-77
2021/09/07 14:04:20;;;;;;;5.55;2.22;;;;;;;28.91;100.00;100231.50;5076372;28;20585;-77
2021/09/07 14:07:23;;;;;;;10.00;2.58;;;;;;;28.78;100.00;100221.19;5076791;28;20505;-76
2021/09/07 14:10:26;;;;;;;8.68;0.98;;;;;;;28.78;100.00;100220.41;5063882;28;20056;-76
2021/09/07 14:13:29;;;;;;;5.68;2.28;;;;;;;28.71;100.00;100215.53;5076466;28;20101;-76